Time;durP1;ratioP1;P1;durP2;ratioP2;P2;SDS_P1;SDS_P2;PMS_P1;PMS_P2;Temp;Humidity;BMP_temperature;BMP_pressure;BME280_temperature;BME280_humidity;BME280_pressure;Samples;Min_cycle;Max_cycle;Signal;HPM_P1;HPM_P2
2021/03/26 00:00:38;;;;;;;13.50;9.70;;;13.60;51.20;;;;;;4994958;28;21384;-68
2021/03/26 00:03:07;;;;;;;12.70;9.68;;;13.70;51.90;;;;;;4988709;28;20172;-69
2021/03/26 00:05:34;;;;;;;12.80;9.48;;;13.60;51.20;;;;;;4998630;28;20128;-69
2021/03/26 00:08:00;;;;;;;16.77;9.02;;;13.60;51.20;;;;;;4994513;28;20042;-70
2021/03/26 00:10:26;;;;;;;14.55;9.95;;;13.60;51.40;;;;;;4996663;28;20036;-69
2021/03/26 00:12:52;;;;;;;13.52;9.57;;;13.60;51.40;;;;;;5000311;28;20049;-69
2021/03/26 00:15:18;;;;;;;16.55;9.65;;;13.60;51.50;;;;;;4997205;28;20043;-70
2021/03/26 00:17:44;;;;;;;13.80;9.57;;;13.60;51.60;;;;;;4986833;28;20384;-70
2021/03/26 00:20:10;;;;;;;15.20;9.10;;;13.60;51.60;;;;;;5003382;28;20483;-70
2021/03/26 00:22:36;;;;;;;12.20;9.05;;;13.50;51.60;;;;;;4984940;28;20078;-69
2021/03/26 00:25:03;;;;;;;14.82;8.77;;;13.60;51.60;;;;;;4987245;28;20091;-70
2021/03/26 00:27:28;;;;;;;18.23;11.02;;;13.60;51.50;;;;;;4999927;28;20065;-69
2021/03/26 00:29:54;;;;;;;17.38;9.85;;;13.60;51.50;;;;;;4996366;28;20141;-69
2021/03/26 00:32:20;;;;;;;14.05;10.45;;;13.50;52.00;;;;;;4993278;28;20121;-70
2021/03/26 00:34:45;;;;;;;12.38;9.88;;;13.40;51.90;;;;;;5003509;28;20046;-70
2021/03/26 00:37:11;;;;;;;17.10;10.63;;;13.40;52.20;;;;;;4992386;28;20092;-69
2021/03/26 00:39:37;;;;;;;16.58;10.35;;;13.50;52.30;;;;;;5002046;28;20041;-70
2021/03/26 00:42:02;;;;;;;14.93;9.60;;;13.40;52.20;;;;;;4993098;28;20140;-69
2021/03/26 00:44:28;;;;;;;16.98;10.00;;;13.50;52.30;;;;;;5006882;28;20129;-69
2021/03/26 00:46:54;;;;;;;17.52;10.13;;;13.50;52.30;;;;;;4994165;28;20033;-69
2021/03/26 00:49:19;;;;;;;14.23;10.23;;;13.50;52.30;;;;;;4988929;28;20034;-69
2021/03/26 00:51:45;;;;;;;14.93;9.63;;;13.50;52.30;;;;;;4989120;28;20038;-70
2021/03/26 00:54:11;;;;;;;13.75;10.35;;;13.40;52.50;;;;;;4998458;28;20522;-70
2021/03/26 00:56:37;;;;;;;15.82;10.98;;;13.40;52.60;;;;;;5009500;28;20030;-70
2021/03/26 00:59:03;;;;;;;15.65;9.55;;;13.40;52.70;;;;;;5003349;28;20037;-69
2021/03/26 01:01:29;;;;;;;15.27;10.13;;;13.40;52.60;;;;;;5009303;28;20075;-69
2021/03/26 01:03:54;;;;;;;17.20;10.65;;;13.30;53.40;;;;;;5005311;28;20037;-68
2021/03/26 01:06:20;;;;;;;13.35;10.27;;;13.30;53.00;;;;;;5006259;28;20034;-69
2021/03/26 01:08:46;;;;;;;13.52;9.48;;;13.30;52.80;;;;;;4987920;28;20030;-69
2021/03/26 01:11:19;;;;;;;13.73;10.55;;;13.40;52.90;;;;;;4993010;28;20511;-69
2021/03/26 01:13:46;;;;;;;14.88;9.73;;;13.40;53.30;;;;;;5000814;28;20172;-69
2021/03/26 01:16:17;;;;;;;15.13;10.38;;;13.30;52.90;;;;;;4992093;28;20476;-69
2021/03/26 01:18:44;;;;;;;15.00;10.48;;;13.30;53.60;;;;;;4998361;28;20061;-69
2021/03/26 01:21:15;;;;;;;18.42;11.60;;;13.30;53.00;;;;;;4994066;28;20488;-69
2021/03/26 01:23:42;;;;;;;14.43;10.23;;;13.40;53.30;;;;;;4977679;28;20042;-70
2021/03/26 01:26:07;;;;;;;11.90;10.27;;;13.30;53.10;;;;;;5011756;28;20053;-70
2021/03/26 01:28:33;;;;;;;14.45;10.45;;;13.30;53.30;;;;;;5003703;28;20081;-69
2021/03/26 01:31:00;;;;;;;13.32;10.15;;;13.40;53.50;;;;;;5003799;28;20043;-70
2021/03/26 01:33:25;;;;;;;18.65;11.13;;;13.20;54.30;;;;;;5008440;28;20034;-69
2021/03/26 01:35:51;;;;;;;14.57;10.57;;;13.20;53.50;;;;;;5000800;28;20096;-70
2021/03/26 01:38:18;;;;;;;10.98;9.85;;;13.20;53.40;;;;;;5003688;28;20033;-70
2021/03/26 01:40:59;;;;;;;13.05;10.82;;;13.30;53.20;;;;;;4995655;28;20045;-70
2021/03/26 01:43:34;;;;;;;17.08;10.45;;;13.30;53.50;;;;;;4996813;28;20065;-69
2021/03/26 01:46:01;;;;;;;12.52;9.00;;;13.30;53.50;;;;;;4991554;28;20046;-69
2021/03/26 01:48:35;;;;;;;16.20;9.63;;;13.30;53.40;;;;;;4999760;28;20034;-69
2021/03/26 01:51:04;;;;;;;24.48;10.13;;;13.30;53.40;;;;;;5002799;28;20499;-70
2021/03/26 01:53:30;;;;;;;13.68;8.93;;;13.30;53.60;;;;;;5005824;28;20195;-70
2021/03/26 01:55:59;;;;;;;14.32;10.23;;;13.20;53.40;;;;;;5001756;28;20582;-69
2021/03/26 01:58:28;;;;;;;12.65;9.43;;;13.20;53.80;;;;;;4998736;28;20033;-69
2021/03/26 02:00:57;;;;;;;14.25;9.15;;;13.10;53.70;;;;;;4998001;28;20050;-69
2021/03/26 02:03:25;;;;;;;13.23;9.32;;;13.20;53.60;;;;;;4998826;28;20109;-60
2021/03/26 02:05:53;;;;;;;13.48;9.05;;;13.20;53.60;;;;;;5005934;28;20060;-70
2021/03/26 02:08:25;;;;;;;12.98;9.95;;;13.20;53.60;;;;;;4995229;28;20038;-70
2021/03/26 02:10:51;;;;;;;15.45;9.40;;;13.20;53.70;;;;;;4999676;28;20064;-70
2021/03/26 02:13:28;;;;;;;14.52;8.70;;;13.20;53.60;;;;;;5007023;28;20038;-69
2021/03/26 02:15:55;;;;;;;15.65;9.07;;;13.10;54.30;;;;;;4984763;28;20097;-66
2021/03/26 02:18:49;;;;;;;13.20;8.82;;;13.10;53.90;;;;;;5000818;28;20120;-69
2021/03/26 02:21:23;;;;;;;11.82;9.07;;;13.10;54.00;;;;;;4978951;28;20049;-69
2021/03/26 02:23:49;;;;;;;11.00;8.87;;;13.10;54.00;;;;;;4993352;28;20045;-69
2021/03/26 02:26:27;;;;;;;13.45;9.07;;;13.00;53.90;;;;;;5000137;28;20074;-69
2021/03/26 02:28:53;;;;;;;14.10;8.32;;;13.10;54.60;;;;;;4997190;28;20447;-68
2021/03/26 02:31:20;;;;;;;13.60;9.88;;;13.00;54.30;;;;;;4997574;28;20037;-69
2021/03/26 02:33:46;;;;;;;17.27;9.80;;;13.10;54.10;;;;;;4992691;28;20034;-70
2021/03/26 02:36:18;;;;;;;11.13;8.93;;;13.10;54.30;;;;;;4998008;28;20440;-70
2021/03/26 02:38:45;;;;;;;13.65;9.43;;;13.00;54.40;;;;;;5002537;28;20056;-70
2021/03/26 02:41:28;;;;;;;11.88;8.52;;;13.10;54.40;;;;;;4994761;28;20072;-70
2021/03/26 02:44:04;;;;;;;12.68;9.57;;;13.10;55.10;;;;;;5007709;28;20037;-59
2021/03/26 02:46:41;;;;;;;12.13;9.00;;;13.10;55.00;;;;;;4982149;28;20034;-69
2021/03/26 02:49:33;;;;;;;13.90;9.13;;;13.10;54.70;;;;;;5004432;28;20059;-69
2021/03/26 02:52:22;;;;;;;13.18;9.40;;;13.10;55.30;;;;;;4976662;28;20042;-69
2021/03/26 02:55:07;;;;;;;13.15;9.05;;;13.10;55.20;;;;;;4997456;28;20085;-69
2021/03/26 02:57:46;;;;;;;15.05;10.32;;;13.10;55.80;;;;;;4978120;28;20041;-69
2021/03/26 03:00:25;;;;;;;15.77;9.80;;;13.00;55.30;;;;;;5000833;28;20068;-69
2021/03/26 03:02:55;;;;;;;12.45;8.45;;;13.00;55.60;;;;;;4985210;28;20073;-69
2021/03/26 03:05:27;;;;;;;13.05;8.85;;;13.00;55.60;;;;;;5016643;28;20046;-69
2021/03/26 03:08:01;;;;;;;10.95;8.43;;;12.90;55.70;;;;;;5001249;28;20038;-69
2021/03/26 03:10:38;;;;;;;14.07;10.17;;;13.00;55.40;;;;;;4998235;28;20045;-70
2021/03/26 03:13:17;;;;;;;18.13;9.80;;;13.00;55.60;;;;;;4996311;28;20636;-70
2021/03/26 03:15:52;;;;;;;16.50;10.23;;;13.00;56.10;;;;;;4995313;28;20113;-70
2021/03/26 03:18:21;;;;;;;;;;;12.90;55.80;;;;;;4998298;28;20101;-70
2021/03/26 03:21:02;;;;;;;15.45;10.13;;;12.80;56.80;;;;;;5005490;28;19917;-70
2021/03/26 03:23:40;;;;;;;16.50;9.70;;;12.90;56.50;;;;;;4993923;28;20181;-70
2021/03/26 03:26:24;;;;;;;16.45;9.27;;;12.90;56.30;;;;;;4999870;28;20030;-70
2021/03/26 03:29:13;;;;;;;17.45;10.38;;;12.90;56.30;;;;;;5012179;28;20037;-70
2021/03/26 03:31:48;;;;;;;13.85;9.43;;;12.90;56.80;;;;;;4977338;28;20034;-70
2021/03/26 03:34:20;;;;;;;16.85;9.30;;;12.90;56.30;;;;;;5002810;28;20049;-70
2021/03/26 03:37:10;;;;;;;17.38;9.32;;;12.90;56.50;;;;;;4996560;28;20045;-70
2021/03/26 03:39:56;;;;;;;11.77;8.77;;;12.90;56.50;;;;;;4961851;28;20042;-70
2021/03/26 03:42:36;;;;;;;18.45;10.00;;;12.90;56.50;;;;;;4989362;28;20045;-70
2021/03/26 03:45:16;;;;;;;14.50;9.45;;;12.80;56.50;;;;;;4974598;28;20037;-70
2021/03/26 03:47:57;;;;;;;16.85;10.05;;;12.90;56.50;;;;;;4999595;28;20088;-70
2021/03/26 03:50:37;;;;;;;15.65;10.00;;;12.90;56.90;;;;;;4995637;28;20108;-70
2021/03/26 03:53:18;;;;;;;13.30;8.82;;;12.90;56.60;;;;;;4980479;28;20088;-70
2021/03/26 03:56:02;;;;;;;12.98;8.65;;;12.90;56.40;;;;;;4986899;28;23090;-70
2021/03/26 03:58:35;;;;;;;12.07;8.90;;;12.80;57.10;;;;;;4999607;28;20077;-70
2021/03/26 04:01:23;;;;;;;12.80;8.48;;;12.80;56.70;;;;;;5004848;28;20050;-70
2021/03/26 04:03:52;;;;;;;12.98;9.02;;;12.90;57.30;;;;;;4978325;28;20050;-70
2021/03/26 04:06:39;;;;;;;17.88;8.85;;;12.70;56.80;;;;;;4999952;28;20033;-69
2021/03/26 04:09:13;;;;;;;18.75;8.68;;;12.80;57.60;;;;;;4980341;28;20085;-69
2021/03/26 04:11:55;;;;;;;11.57;8.52;;;12.80;56.80;;;;;;4999717;28;20065;-69
2021/03/26 04:14:29;;;;;;;10.77;8.02;;;12.80;57.30;;;;;;5005468;28;20045;-70
2021/03/26 04:17:13;;;;;;;9.55;8.02;;;12.80;56.80;;;;;;5000167;28;20042;-69
2021/03/26 04:19:45;;;;;;;16.65;9.00;;;12.80;56.80;;;;;;4999703;28;20525;-69
2021/03/26 04:22:15;;;;;;;12.68;8.63;;;12.80;57.10;;;;;;4999509;28;20045;-70
2021/03/26 04:24:53;;;;;;;13.40;8.38;;;12.80;56.70;;;;;;5005719;28;20042;-69
2021/03/26 04:27:31;;;;;;;11.68;9.05;;;12.80;57.10;;;;;;4992356;28;20056;-70
2021/03/26 04:30:02;;;;;;;15.80;9.48;;;12.80;56.80;;;;;;4982148;28;20093;-69
2021/03/26 04:32:28;;;;;;;12.95;9.50;;;12.80;56.80;;;;;;5000616;28;20046;-69
2021/03/26 04:34:54;;;;;;;12.80;10.02;;;12.70;56.90;;;;;;5009462;28;20045;-70
2021/03/26 04:37:44;;;;;;;15.38;10.98;;;12.70;57.00;;;;;;5000988;28;20038;-69
2021/03/26 04:40:25;;;;;;;16.48;11.40;;;12.60;57.20;;;;;;4985156;28;20046;-70
2021/03/26 04:43:16;;;;;;;14.98;11.38;;;12.50;57.10;;;;;;4985257;28;20031;-70
2021/03/26 04:46:09;;;;;;;19.15;11.95;;;12.60;57.50;;;;;;4988099;28;20038;-69
2021/03/26 04:49:04;;;;;;;18.48;11.38;;;12.50;57.50;;;;;;4982662;28;20047;-70
2021/03/26 04:51:38;;;;;;;19.55;12.82;;;12.40;58.10;;;;;;4982573;28;20038;-69
2021/03/26 04:54:04;;;;;;;23.48;15.63;;;12.30;57.60;;;;;;4995862;28;20061;-69
2021/03/26 04:56:35;;;;;;;20.05;15.32;;;12.20;57.80;;;;;;5008287;28;20061;-68
2021/03/26 04:59:05;;;;;;;23.23;16.58;;;12.20;57.80;;;;;;4994632;28;20433;-69
2021/03/26 05:01:32;;;;;;;22.08;17.13;;;12.20;57.60;;;;;;5002461;28;20068;-69
2021/03/26 05:04:07;;;;;;;26.63;17.75;;;12.20;57.40;;;;;;5001995;28;20038;-69
2021/03/26 05:06:45;;;;;;;26.75;17.88;;;12.20;57.80;;;;;;4994367;28;20432;-69
2021/03/26 05:09:23;;;;;;;24.42;18.10;;;12.20;58.10;;;;;;5009089;28;20054;-69
2021/03/26 05:11:54;;;;;;;25.67;18.77;;;12.10;58.00;;;;;;4997675;28;20054;-69
2021/03/26 05:14:43;;;;;;;24.90;18.92;;;12.00;58.00;;;;;;5000521;28;20038;-69
2021/03/26 05:17:28;;;;;;;24.23;19.80;;;12.00;57.90;;;;;;4985202;28;20034;-69
2021/03/26 05:20:26;;;;;;;24.13;18.88;;;11.90;58.40;;;;;;5001235;28;20041;-69
2021/03/26 05:22:58;;;;;;;26.42;19.13;;;11.90;58.40;;;;;;4984020;28;20160;-69
2021/03/26 05:25:30;;;;;;;26.88;19.48;;;12.00;58.50;;;;;;4998100;28;20053;-69
2021/03/26 05:27:57;;;;;;;27.80;19.60;;;11.90;58.20;;;;;;4996129;28;20451;-69
2021/03/26 05:30:27;;;;;;;26.25;19.63;;;11.90;58.30;;;;;;5013538;28;20049;-69
2021/03/26 05:33:13;;;;;;;25.42;21.10;;;12.00;58.10;;;;;;5009977;28;20042;-69
2021/03/26 05:35:49;;;;;;;25.45;20.27;;;11.90;58.20;;;;;;4982766;28;20045;-69
2021/03/26 05:38:20;;;;;;;30.00;20.88;;;11.90;58.30;;;;;;5003888;28;20128;-69
2021/03/26 05:40:50;;;;;;;23.90;18.98;;;11.90;58.30;;;;;;5008877;28;20053;-69
2021/03/26 05:43:46;;;;;;;27.33;19.17;;;11.80;58.50;;;;;;5002151;28;20041;-69
2021/03/26 05:46:39;;;;;;;;;;;11.90;59.00;;;;;;4976831;28;20087;-69
2021/03/26 05:49:24;;;;;;;26.75;19.42;;;11.80;59.60;;;;;;4983512;28;19914;-69
2021/03/26 05:52:13;;;;;;;29.75;21.00;;;11.80;58.40;;;;;;5004402;28;20393;-69
2021/03/26 05:55:11;;;;;;;28.38;20.52;;;11.90;59.20;;;;;;4980476;28;20064;-69
2021/03/26 05:57:46;;;;;;;29.60;20.33;;;11.90;58.60;;;;;;4947123;28;20156;-68
2021/03/26 06:00:30;;;;;;;27.92;19.77;;;12.00;58.50;;;;;;5002657;28;20053;-68
2021/03/26 06:03:23;;;;;;;25.48;19.30;;;12.00;59.10;;;;;;5006411;28;20169;-68
2021/03/26 06:06:10;;;;;;;24.23;19.13;;;11.90;59.10;;;;;;5002720;28;20038;-70
2021/03/26 06:08:57;;;;;;;29.38;20.73;;;12.00;58.70;;;;;;4970583;28;20107;-69
2021/03/26 06:11:34;;;;;;;29.48;20.65;;;12.10;58.60;;;;;;5006543;28;20037;-70
2021/03/26 06:14:38;;;;;;;25.42;20.33;;;12.00;58.20;;;;;;4982770;28;20116;-70
2021/03/26 06:17:13;;;;;;;27.83;21.27;;;12.00;58.40;;;;;;4977007;28;20034;-69
2021/03/26 06:20:14;;;;;;;28.23;21.02;;;12.10;58.30;;;;;;5007014;28;20077;-70
2021/03/26 06:23:23;;;;;;;31.20;22.00;;;12.10;58.50;;;;;;4967571;28;20054;-69
2021/03/26 06:26:10;;;;;;;30.27;21.90;;;12.10;58.10;;;;;;4960419;28;20042;-70
2021/03/26 06:28:57;;;;;;;27.05;20.67;;;12.00;58.50;;;;;;4979278;28;20039;-70
2021/03/26 06:31:52;;;;;;;26.83;20.75;;;12.10;58.50;;;;;;4995325;28;20064;-69
2021/03/26 06:34:33;;;;;;;35.85;26.17;;;12.10;58.20;;;;;;4969310;28;20081;-69
2021/03/26 06:37:35;;;;;;;35.63;26.67;;;12.20;57.30;;;;;;4995130;28;20088;-70
2021/03/26 06:40:01;;;;;;;35.97;25.73;;;12.30;57.30;;;;;;4979505;28;20091;-69
2021/03/26 06:42:35;;;;;;;39.40;27.77;;;12.30;56.50;;;;;;5003613;28;20038;-68
2021/03/26 06:45:07;;;;;;;38.65;30.27;;;12.40;56.10;;;;;;5002464;28;20042;-69
2021/03/26 06:47:35;;;;;;;44.05;30.27;;;12.40;55.60;;;;;;4990575;28;20057;-69
2021/03/26 06:50:19;;;;;;;48.20;31.33;;;12.30;55.20;;;;;;4989107;28;20037;-69
2021/03/26 06:53:09;;;;;;;42.17;30.45;;;12.40;55.50;;;;;;5006098;28;20061;-70
2021/03/26 06:55:42;;;;;;;41.28;29.38;;;12.40;54.60;;;;;;4956726;28;20042;-69
2021/03/26 06:58:29;;;;;;;42.17;30.00;;;12.40;55.30;;;;;;4966713;28;20546;-69
2021/03/26 07:01:24;;;;;;;41.47;29.58;;;12.50;54.80;;;;;;5006170;28;20121;-70
2021/03/26 07:03:54;;;;;;;38.08;28.05;;;12.60;54.50;;;;;;4950212;28;20042;-70
2021/03/26 07:06:29;;;;;;;45.83;31.30;;;12.50;54.30;;;;;;5006173;28;20042;-69
2021/03/26 07:09:06;;;;;;;;;;;12.60;54.20;;;;;;5000453;28;20050;-71
2021/03/26 07:11:50;;;;;;;41.58;28.75;;;12.50;54.60;;;;;;4959147;28;19964;-70
2021/03/26 07:14:28;;;;;;;44.63;30.70;;;12.60;54.50;;;;;;4996086;28;20117;-70
2021/03/26 07:17:14;;;;;;;42.05;31.27;;;12.70;54.30;;;;;;4992218;28;20104;-70
2021/03/26 07:19:57;;;;;;;45.55;31.05;;;12.80;53.60;;;;;;4965378;28;20056;-70
2021/03/26 07:23:00;;;;;;;45.75;30.52;;;12.90;53.20;;;;;;4994708;28;20084;-71
2021/03/26 07:25:48;;;;;;;42.10;29.80;;;12.80;53.00;;;;;;4947003;28;20061;-69
2021/03/26 07:28:45;;;;;;;43.83;31.65;;;12.90;53.00;;;;;;4988454;28;20092;-70
2021/03/26 07:31:32;;;;;;;47.83;31.45;;;12.80;52.50;;;;;;4938608;28;20070;-70
2021/03/26 07:34:37;;;;;;;47.58;32.22;;;12.90;53.30;;;;;;4987796;28;20030;-70
2021/03/26 07:37:03;;;;;;;42.50;31.45;;;13.00;52.70;;;;;;4986248;28;20400;-71
2021/03/26 07:39:49;;;;;;;47.92;31.67;;;13.00;51.60;;;;;;5007070;28;20036;-71
2021/03/26 07:42:53;;;;;;;46.00;31.02;;;13.10;51.90;;;;;;5008138;28;20057;-72
2021/03/26 07:45:29;;;;;;;47.20;32.95;;;13.10;51.10;;;;;;4967021;28;20442;-72
2021/03/26 07:48:18;;;;;;;43.53;32.42;;;13.00;51.10;;;;;;5005671;28;20404;-71
2021/03/26 07:51:37;;;;;;;49.88;33.67;;;13.00;50.90;;;;;;4985984;28;20045;-71
2021/03/26 07:54:18;;;;;;;51.35;34.65;;;13.20;50.70;;;;;;4941934;28;20084;-71
2021/03/26 07:57:03;;;;;;;57.88;37.53;;;13.30;50.30;;;;;;5007844;28;20037;-71
2021/03/26 07:59:59;;;;;;;50.28;34.42;;;13.40;49.40;;;;;;4998582;28;20506;-71
2021/03/26 08:02:54;;;;;;;53.10;35.60;;;13.50;49.40;;;;;;5004186;28;20038;-70
2021/03/26 08:05:44;;;;;;;51.05;33.97;;;13.50;49.40;;;;;;4974157;28;20058;-70
2021/03/26 08:08:19;;;;;;;48.83;33.78;;;13.40;49.50;;;;;;4983729;28;20064;-70
2021/03/26 08:10:50;;;;;;;;;;;13.40;49.40;;;;;;5004736;28;20041;-71
2021/03/26 08:13:24;;;;;;;49.22;31.73;;;13.50;49.50;;;;;;5010894;28;19940;-71
2021/03/26 08:16:42;;;;;;;49.97;32.05;;;13.60;49.70;;;;;;5001719;28;20919;-71
2021/03/26 08:19:41;;;;;;;47.45;32.47;;;13.60;49.60;;;;;;4919251;28;20448;-70
2021/03/26 08:22:37;;;;;;;49.60;31.50;;;13.60;50.00;;;;;;4968744;28;20046;-70
2021/03/26 08:25:40;;;;;;;42.35;28.70;;;13.70;50.00;;;;;;4967146;28;20135;-70
2021/03/26 08:28:18;;;;;;;45.72;32.22;;;13.80;50.00;;;;;;4969707;28;20035;-71
2021/03/26 08:30:54;;;;;;;44.00;28.27;;;13.80;49.80;;;;;;4989029;28;20037;-71
2021/03/26 08:33:48;;;;;;;35.53;25.92;;;13.90;49.80;;;;;;4996509;28;20038;-71
2021/03/26 08:36:56;;;;;;;37.88;26.00;;;14.00;50.10;;;;;;4968627;28;20034;-70
2021/03/26 08:39:42;;;;;;;40.08;26.90;;;14.10;50.30;;;;;;4971914;28;20045;-70
2021/03/26 08:42:22;;;;;;;50.22;28.08;;;14.10;49.70;;;;;;4955335;28;20074;-71
2021/03/26 08:45:07;;;;;;;34.35;25.48;;;14.10;49.40;;;;;;4991676;28;20030;-71
2021/03/26 08:47:50;;;;;;;41.88;27.85;;;14.20;49.30;;;;;;4973419;28;20037;-70
2021/03/26 08:50:53;;;;;;;39.25;28.17;;;14.30;49.80;;;;;;5001804;28;20050;-70
2021/03/26 08:53:31;;;;;;;34.42;25.98;;;14.20;49.00;;;;;;4976178;28;20046;-70
2021/03/26 08:56:15;;;;;;;39.22;26.10;;;14.40;48.90;;;;;;5001453;28;20510;-70
2021/03/26 08:59:06;;;;;;;35.72;24.83;;;14.40;48.60;;;;;;5005118;28;20031;-71
2021/03/26 09:02:07;;;;;;;38.65;26.25;;;14.50;48.60;;;;;;4978719;28;20504;-71
2021/03/26 09:05:10;;;;;;;38.95;25.33;;;14.50;48.80;;;;;;4981431;28;20444;-71
2021/03/26 09:07:52;;;;;;;38.03;26.67;;;14.70;48.40;;;;;;4981655;28;20084;-71
2021/03/26 09:10:24;;;;;;;37.55;24.83;;;14.70;47.50;;;;;;5000515;28;20030;-71
2021/03/26 09:13:04;;;;;;;33.28;23.50;;;14.70;47.50;;;;;;4983013;28;20525;-71
2021/03/26 09:15:41;;;;;;;31.80;23.27;;;14.80;47.40;;;;;;4967835;28;20527;-71
2021/03/26 09:18:16;;;;;;;37.75;23.85;;;14.90;47.20;;;;;;5002308;28;20042;-71
2021/03/26 09:20:54;;;;;;;;;;;14.90;47.00;;;;;;5007673;28;20054;-70
2021/03/26 09:24:01;;;;;;;35.08;23.92;;;14.90;46.60;;;;;;5002526;28;20322;-71
2021/03/26 09:26:56;;;;;;;38.08;25.30;;;15.00;47.00;;;;;;4891734;28;20034;-69
2021/03/26 09:29:50;;;;;;;36.08;23.80;;;15.10;46.30;;;;;;5009994;28;20037;-70
2021/03/26 09:32:21;;;;;;;33.65;23.98;;;15.20;46.40;;;;;;4987683;28;20092;-71
2021/03/26 09:35:13;;;;;;;34.75;25.80;;;15.30;45.90;;;;;;5002424;28;20038;-71
2021/03/26 09:37:42;;;;;;;36.47;25.42;;;15.20;45.70;;;;;;4974071;28;20072;-71
2021/03/26 09:40:25;;;;;;;39.28;26.38;;;15.20;45.70;;;;;;5007267;28;20108;-70
2021/03/26 09:43:13;;;;;;;31.42;23.05;;;15.50;45.60;;;;;;4980696;28;20045;-71
2021/03/26 09:45:52;;;;;;;32.85;23.58;;;15.40;44.90;;;;;;4983881;28;20049;-71
2021/03/26 09:48:34;;;;;;;36.88;23.25;;;15.50;45.00;;;;;;4997096;28;20034;-71
2021/03/26 09:51:18;;;;;;;32.75;23.73;;;15.60;45.00;;;;;;5008237;28;20116;-70
2021/03/26 09:53:44;;;;;;;32.85;23.27;;;15.70;45.80;;;;;;5002679;28;20086;-71
2021/03/26 09:56:31;;;;;;;32.60;21.50;;;15.80;44.80;;;;;;5000662;28;20514;-70
2021/03/26 09:59:22;;;;;;;29.45;22.45;;;15.90;44.50;;;;;;4983420;28;20057;-71
2021/03/26 10:02:22;;;;;;;33.05;22.45;;;16.00;44.00;;;;;;5005955;28;20502;-72
2021/03/26 10:05:11;;;;;;;32.13;22.65;;;16.00;44.20;;;;;;4964336;28;20341;-72
2021/03/26 10:07:53;;;;;;;33.25;23.08;;;16.10;44.70;;;;;;4981650;28;20080;-72
2021/03/26 10:13:01;;;;;;;27.50;20.63;;;16.30;43.40;;;;;;5006569;28;20050;-72
2021/03/26 10:15:39;;;;;;;28.33;20.30;;;16.20;43.10;;;;;;5004586;28;20057;-72
2021/03/26 10:18:19;;;;;;;28.17;21.38;;;16.40;43.50;;;;;;5003754;28;20121;-72
2021/03/26 10:20:52;;;;;;;25.20;20.75;;;16.30;42.90;;;;;;4998107;28;20034;-72
2021/03/26 10:23:35;;;;;;;31.45;21.60;;;16.50;42.80;;;;;;5008056;28;20042;-72
2021/03/26 10:26:00;;;;;;;24.48;19.83;;;16.70;42.60;;;;;;4998540;28;20042;-72
2021/03/26 10:28:32;;;;;;;30.15;22.02;;;16.70;42.50;;;;;;5003903;28;20038;-66
2021/03/26 10:31:08;;;;;;;25.70;21.25;;;16.70;41.70;;;;;;5002982;28;20073;-71
2021/03/26 10:33:51;;;;;;;26.33;20.17;;;16.70;41.90;;;;;;5006275;28;20046;-72
2021/03/26 10:36:50;;;;;;;31.48;21.48;;;16.80;42.30;;;;;;5001857;28;20047;-73
2021/03/26 10:39:32;;;;;;;27.48;21.85;;;16.80;41.40;;;;;;4978851;28;20531;-73
2021/03/26 10:42:10;;;;;;;30.73;22.42;;;16.90;42.10;;;;;;5000858;28;20124;-72
2021/03/26 10:45:03;;;;;;;28.38;22.13;;;16.90;42.60;;;;;;5006918;28;20136;-73
2021/03/26 10:47:51;;;;;;;27.50;20.08;;;17.10;41.40;;;;;;5017423;28;20411;-72
2021/03/26 10:50:45;;;;;;;24.77;19.15;;;17.30;41.50;;;;;;4994061;28;20047;-73
2021/03/26 10:53:19;;;;;;;26.75;20.17;;;17.30;41.20;;;;;;4979779;28;20087;-72
2021/03/26 10:55:56;;;;;;;35.28;20.27;;;17.40;41.00;;;;;;4997593;28;20479;-72
2021/03/26 10:58:34;;;;;;;27.88;20.17;;;17.40;40.90;;;;;;5007402;28;20038;-72
2021/03/26 11:01:03;;;;;;;30.23;21.50;;;17.60;40.80;;;;;;5000467;28;20502;-72
2021/03/26 11:03:41;;;;;;;27.90;20.95;;;17.70;40.00;;;;;;5005363;28;20065;-74
2021/03/26 11:06:32;;;;;;;28.95;21.55;;;17.80;39.60;;;;;;5005469;28;20034;-72
2021/03/26 11:09:33;;;;;;;27.30;22.30;;;17.90;39.50;;;;;;5000924;28;20068;-72
2021/03/26 11:12:19;;;;;;;28.27;20.60;;;18.00;38.80;;;;;;5000165;28;20053;-72
2021/03/26 11:15:12;;;;;;;30.83;21.15;;;18.00;39.40;;;;;;5002533;28;20038;-72
2021/03/26 11:18:17;;;;;;;27.70;21.20;;;18.20;38.90;;;;;;4979056;28;20054;-72
2021/03/26 11:20:43;;;;;;;27.02;22.52;;;18.00;38.60;;;;;;4983703;28;20058;-72
2021/03/26 11:23:31;;;;;;;26.45;19.20;;;18.10;39.50;;;;;;5001815;28;20036;-72
2021/03/26 11:26:10;;;;;;;27.02;21.58;;;18.20;38.60;;;;;;5001528;28;20033;-66
2021/03/26 11:28:54;;;;;;;30.40;21.98;;;18.40;38.00;;;;;;4996644;28;20407;-66
2021/03/26 11:31:38;;;;;;;30.35;21.92;;;18.40;37.60;;;;;;5004500;28;20037;-61
2021/03/26 11:34:09;;;;;;;27.20;22.35;;;18.30;37.70;;;;;;4959122;28;20026;-62
2021/03/26 11:36:47;;;;;;;29.20;21.02;;;18.40;37.90;;;;;;5006014;28;20161;-64
2021/03/26 11:39:25;;;;;;;26.65;20.85;;;18.60;37.40;;;;;;5000866;28;20034;-65
2021/03/26 11:42:06;;;;;;;28.83;20.98;;;18.80;37.30;;;;;;5003650;28;20042;-73
2021/03/26 11:44:44;;;;;;;28.15;21.38;;;18.80;36.30;;;;;;4977443;28;20125;-64
2021/03/26 11:47:36;;;;;;;28.65;21.42;;;19.00;36.30;;;;;;5006442;28;20038;-65
2021/03/26 11:50:02;;;;;;;29.27;20.30;;;19.20;35.10;;;;;;4980292;28;20487;-63
2021/03/26 11:52:35;;;;;;;28.35;21.75;;;19.10;35.90;;;;;;5007051;28;20037;-67
2021/03/26 11:55:19;;;;;;;30.35;22.15;;;19.30;35.60;;;;;;5002880;28;20046;-67
2021/03/26 11:58:04;;;;;;;35.45;23.73;;;19.30;35.10;;;;;;5007293;28;20559;-67
2021/03/26 12:00:32;;;;;;;28.90;23.40;;;19.30;34.50;;;;;;5002239;28;20042;-67
2021/03/26 12:03:16;;;;;;;28.77;23.75;;;19.20;33.80;;;;;;5006056;28;20073;-67
2021/03/26 12:06:01;;;;;;;34.70;22.67;;;19.30;34.60;;;;;;4995905;28;20057;-68
2021/03/26 12:08:41;;;;;;;26.55;21.10;;;19.70;34.30;;;;;;4997327;28;20434;-63
2021/03/26 12:11:20;;;;;;;26.45;21.70;;;19.90;33.90;;;;;;5005272;28;20057;-67
2021/03/26 12:13:51;;;;;;;26.33;21.83;;;20.20;34.70;;;;;;5001118;28;20046;-67
2021/03/26 12:16:27;;;;;;;31.00;24.05;;;21.10;31.40;;;;;;5004328;28;20038;-68
2021/03/26 12:19:00;;;;;;;29.20;22.90;;;21.30;31.10;;;;;;5000594;28;20567;-67
2021/03/26 12:21:44;;;;;;;29.65;24.02;;;26.30;25.40;;;;;;4995569;28;20069;-67
2021/03/26 12:24:14;;;;;;;29.92;23.85;;;;;;;;;;4980601;28;20057;-69
2021/03/26 12:27:18;;;;;;;31.65;25.80;;;29.30;21.70;;;;;;5005155;28;20030;-65
2021/03/26 12:29:56;;;;;;;26.40;22.88;;;31.00;19.60;;;;;;4977351;28;20185;-65
2021/03/26 12:32:25;;;;;;;27.60;23.75;;;31.10;19.70;;;;;;5002653;28;20042;-70
2021/03/26 12:35:08;;;;;;;27.73;24.77;;;32.10;18.60;;;;;;5004351;28;20064;-66
2021/03/26 12:37:33;;;;;;;29.13;23.23;;;32.10;19.30;;;;;;4982980;28;20041;-66
2021/03/26 12:40:15;;;;;;;26.52;23.38;;;31.90;18.90;;;;;;4999327;28;20534;-62
2021/03/26 12:42:45;;;;;;;27.45;23.48;;;31.30;19.20;;;;;;5007025;28;20085;-66
2021/03/26 12:45:44;;;;;;;28.13;25.08;;;30.60;20.30;;;;;;5000505;28;20511;-65
2021/03/26 12:48:19;;;;;;;30.92;26.00;;;32.00;18.70;;;;;;4972002;28;20038;-63
2021/03/26 12:50:49;;;;;;;31.77;28.40;;;32.20;18.80;;;;;;5000807;28;20048;-63
2021/03/26 12:53:43;;;;;;;32.78;29.33;;;32.00;18.60;;;;;;5008329;28;20049;-68
2021/03/26 12:56:14;;;;;;;33.88;26.08;;;31.30;18.20;;;;;;4978636;28;20510;-65
2021/03/26 12:59:04;;;;;;;34.60;28.02;;;30.40;19.30;;;;;;5004969;28;20124;-65
2021/03/26 13:01:40;;;;;;;31.77;28.40;;;30.10;18.50;;;;;;5000728;28;20041;-65
2021/03/26 13:04:24;;;;;;;30.17;26.92;;;29.30;20.50;;;;;;5011466;28;20399;-64
2021/03/26 13:06:50;;;;;;;;;;;29.80;20.00;;;;;;5000837;28;20043;-63
2021/03/26 13:09:29;;;;;;;30.92;27.63;;;29.40;19.20;;;;;;5009008;28;20055;-63
2021/03/26 13:12:13;;;;;;;34.70;28.98;;;30.50;19.60;;;;;;5002968;28;20128;-67
2021/03/26 13:14:47;;;;;;;34.55;27.35;;;30.80;19.00;;;;;;4981534;28;20518;-68
2021/03/26 13:17:30;;;;;;;31.42;27.55;;;31.60;19.60;;;;;;5003916;28;20034;-67
2021/03/26 13:20:07;;;;;;;36.67;28.98;;;31.00;19.00;;;;;;5022215;28;20042;-67
2021/03/26 13:22:52;;;;;;;33.65;28.33;;;31.30;18.90;;;;;;4977872;28;20051;-67
2021/03/26 13:25:39;;;;;;;33.03;29.42;;;30.00;19.50;;;;;;5009140;28;20042;-67
2021/03/26 13:28:20;;;;;;;36.35;32.33;;;29.50;19.40;;;;;;4977798;28;20402;-67
2021/03/26 13:30:57;;;;;;;37.28;33.38;;;28.00;20.40;;;;;;5005292;28;20042;-67
2021/03/26 13:33:46;;;;;;;36.92;32.90;;;28.70;20.40;;;;;;5004797;28;20041;-67